Observations for Trim Market St
| Time | AQI | Temp °C | Hum % | Pres Pa | CO μg/m³ | H₂S μg/m³ | NO μg/m³ | NO₂ μg/m³ | O₃ μg/m³ | SO₂ μg/m³ | PM1 μg/m³ | PM2.5 μg/m³ | PM10 μg/m³ |
|---|---|---|---|---|---|---|---|---|---|---|---|---|---|
| Tuesday 25 August 2026 | |||||||||||||
| 07:08 | 2 | 15.1 | 77 | 20,176 | 0.33 | 0 | 1.66 | 26.52 | 30.28 | 0 | 2.14 | 3.66 | 7.53 |
| 07:01 | 2 | 15.2 | 77 | 26,891 | 0.31 | 0 | 1.64 | 17.2 | 40.28 | 0 | 2.14 | 3.21 | 6.94 |
| 06:58 | 2 | 15.2 | 76 | 29,259 | 0.35 | 0 | 1.65 | 20.87 | 37.38 | 0 | 1.43 | 2.75 | 5.77 |
| 06:57 | 2 | 15.2 | 76 | 29,998 | 0.62 | 0 | 1.72 | 24.63 | 30.77 | 0 | 0.71 | 2.75 | 5.18 |
| 06:54 | 2 | 15.3 | 76 | 32,038 | 0.32 | 0 | 1.49 | 16.58 | 40.78 | 0 | 2.14 | 3.71 | 8.71 |
| 06:50 | 2 | 15.4 | 76 | 34,033 | 0.67 | 0 | 1.81 | 22.05 | 36.04 | 0 | 2.14 | 3.25 | 5.76 |
| 06:49 | 2 | 15.4 | 76 | 34,619 | 0.48 | 0 | 1.74 | 24.32 | 32.71 | 0 | 2.14 | 2.78 | 5.76 |
| 06:48 | 2 | 15.4 | 76 | 35,312 | 0.56 | 0 | 1.66 | 18.33 | 38.85 | 0 | 1.43 | 2.78 | 5.16 |
| 06:47 | 2 | 15.4 | 76 | 36,130 | 0.79 | 0 | 1.74 | 23.3 | 37.11 | 0 | 0.71 | 2.79 | 5.16 |
| 06:46 | 2 | 15.4 | 76 | 37,049 | 1.3 | 0 | 2.12 | 24.24 | 32.35 | 0 | 0.71 | 2.31 | 6.34 |
| 06:45 | 2 | 15.4 | 76 | 37,976 | 0.79 | 0 | 2.25 | 23.71 | 36.36 | 0 | 0.71 | 2.79 | 5.15 |
| 06:44 | 2 | 15.4 | 76 | 39,063 | 2.15 | 7.51 | 2.6 | 24.21 | 33.58 | 0 | 0.71 | 3.75 | 6.94 |
| 06:43 | 2 | 15.4 | 75 | 39,874 | 6.3 | 37.39 | 2.35 | 28.02 | 29.47 | 0 | 1.43 | 3.28 | 7.53 |
| 06:42 | 2 | 15.4 | 75 | 40,480 | 15.44 | 41.35 | 2.13 | 28.02 | 27.81 | 4.93 | 2.14 | 3.76 | 6.94 |
| 06:41 | 2 | 15.4 | 75 | 40,554 | 0.54 | 0 | 1.79 | 16.11 | 41.18 | 0 | 1.43 | 2.33 | 6.94 |
| 06:40 | 2 | 15.4 | 75 | 40,628 | 0.31 | 0 | 1.71 | 13.6 | 43.04 | 0 | 1.43 | 2.8 | 5.15 |
| 06:39 | 2 | 15.4 | 75 | 40,625 | 0.31 | 0 | 1.74 | 12.78 | 42.91 | 0 | 2.14 | 3.28 | 5.74 |
| 06:38 | 2 | 15.4 | 75 | 40,608 | 0.33 | 0 | 1.8 | 17.81 | 36.75 | 0 | 2.14 | 3.28 | 5.74 |
| 06:37 | 2 | 15.4 | 75 | 40,659 | 0.32 | 0 | 1.74 | 9.31 | 47.07 | 0 | 0.71 | 2.33 | 5.74 |
| 06:34 | 2 | 15.4 | 75 | 40,709 | 0.32 | 0 | 1.86 | 27.34 | 41.58 | 0 | 0.71 | 2.33 | 4.55 |